createdAt,value
2022-08-21T00:03:19.480Z,34.55
2022-08-21T00:10:21.911Z,33.83
2022-08-21T00:17:25.444Z,31.17
2022-08-21T00:24:27.851Z,28.02
2022-08-21T00:31:32.339Z,33.88
2022-08-21T00:38:36.195Z,15.35
2022-08-21T00:45:38.395Z,35.17
2022-08-21T00:52:40.712Z,45.63
2022-08-21T00:59:44.756Z,51.63
2022-08-21T01:06:47.112Z,52.58
2022-08-21T01:13:50.123Z,49.22
2022-08-21T01:21:11.615Z,47.17
2022-08-21T01:28:15.151Z,44.83
2022-08-21T01:35:18.222Z,45.10
2022-08-21T01:42:21.980Z,45.83
2022-08-21T01:49:24.253Z,48.35
2022-08-21T01:56:28.962Z,53.30
2022-08-21T02:03:36.119Z,58.17
2022-08-21T02:10:38.653Z,999.90
2022-08-21T02:17:41.808Z,999.90
2022-08-21T02:24:53.671Z,999.90
2022-08-21T02:31:57.120Z,999.90
2022-08-21T02:38:59.394Z,999.90
2022-08-21T02:46:03.640Z,999.90
2022-08-21T02:53:06.927Z,999.90
2022-08-21T03:00:11.766Z,999.90
2022-08-21T03:07:16.283Z,999.90
2022-08-21T03:14:18.560Z,999.90
2022-08-21T03:21:20.788Z,999.90
2022-08-21T03:28:24.414Z,999.90
2022-08-21T03:35:26.817Z,999.90
2022-08-21T03:42:29.029Z,38.15
2022-08-21T03:49:32.983Z,38.45
2022-08-21T03:56:35.218Z,37.42
2022-08-21T04:03:39.265Z,37.30
2022-08-21T04:10:42.849Z,39.60
2022-08-21T04:17:45.261Z,38.30
2022-08-21T04:24:47.477Z,35.65
2022-08-21T04:31:53.113Z,36.95
2022-08-21T04:38:55.403Z,37.63
2022-08-21T04:46:01.293Z,999.90
2022-08-21T04:53:05.124Z,999.90
2022-08-21T05:00:13.658Z,999.90
2022-08-21T05:07:41.564Z,999.90
2022-08-21T05:14:46.265Z,999.90
2022-08-21T05:21:48.974Z,999.90
2022-08-21T05:28:51.225Z,999.90
2022-08-21T05:35:56.673Z,999.90
2022-08-21T05:43:00.009Z,999.90
2022-08-21T05:50:04.746Z,999.90
2022-08-21T05:57:09.417Z,999.90
2022-08-21T06:04:11.678Z,999.90
2022-08-21T06:11:13.953Z,999.90
2022-08-21T06:18:17.529Z,999.90
2022-08-21T06:25:20.337Z,999.90
2022-08-21T06:32:22.608Z,999.90
2022-08-21T06:39:30.657Z,999.90
2022-08-21T06:46:38.213Z,999.90
2022-08-21T06:53:40.494Z,999.90
2022-08-21T07:00:45.173Z,999.90
2022-08-21T07:07:47.638Z,136.35
2022-08-21T07:14:49.875Z,395.00
2022-08-21T07:21:58.732Z,999.90
2022-08-21T07:29:00.987Z,999.90
2022-08-21T07:36:03.759Z,753.75
2022-08-21T07:43:07.377Z,17.80
2022-08-21T07:50:12.440Z,999.90
2022-08-21T07:57:14.871Z,999.90
2022-08-21T11:43:24.632Z,2.83
2022-08-21T12:08:47.302Z,2.97
2022-08-21T12:51:43.185Z,2.97
2022-08-21T12:58:56.038Z,2.78
2022-08-21T13:05:59.011Z,3.05
2022-08-21T13:13:03.025Z,3.08
2022-08-21T13:20:25.879Z,3.33
2022-08-21T13:27:29.895Z,3.35
2022-08-21T13:34:35.605Z,3.03
2022-08-21T13:41:39.481Z,3.10
2022-08-21T13:48:42.430Z,2.63
2022-08-21T13:55:44.693Z,2.65
2022-08-21T14:02:51.750Z,3.28
2022-08-21T14:09:53.988Z,2.88
2022-08-21T14:17:00.148Z,2.83
2022-08-21T14:24:25.341Z,2.70
2022-08-21T14:31:30.486Z,2.67
2022-08-21T14:38:33.453Z,2.85
2022-08-21T14:45:37.541Z,2.40
2022-08-21T14:52:40.491Z,2.30
2022-08-21T14:59:42.751Z,2.70
2022-08-21T15:06:44.964Z,3.05
2022-08-21T15:13:47.649Z,2.80
2022-08-21T15:20:50.114Z,2.80
2022-08-21T15:27:52.305Z,2.97
2022-08-21T15:34:54.704Z,3.08
2022-08-21T15:41:57.145Z,2.67
2022-08-21T15:49:00.069Z,2.90
2022-08-21T15:56:02.561Z,2.40
2022-08-21T16:03:05.534Z,2.80
2022-08-21T16:10:08.003Z,2.42
2022-08-21T16:17:12.526Z,2.80
2022-08-21T16:24:16.752Z,2.88
2022-08-21T16:31:20.349Z,2.63
2022-08-21T16:47:52.313Z,3.17
2022-08-21T16:54:54.679Z,2.80
2022-08-21T17:01:57.174Z,2.50
2022-08-21T17:08:59.439Z,2.45
2022-08-21T17:16:01.653Z,2.72
2022-08-21T17:23:03.893Z,2.85
2022-08-21T17:30:06.620Z,2.30
2022-08-21T17:37:08.864Z,2.70
2022-08-21T17:44:14.280Z,2.70
2022-08-21T17:51:20.487Z,4.23
2022-08-21T17:58:22.727Z,4.30
2022-08-21T18:05:24.978Z,3.80
2022-08-21T18:12:27.235Z,3.40
2022-08-21T18:53:23.937Z,2.50
2022-08-21T19:14:19.078Z,3.35
2022-08-21T19:21:25.004Z,3.85
2022-08-21T19:28:38.776Z,3.00
2022-08-21T19:35:41.118Z,3.15
2022-08-21T19:42:43.433Z,3.35
2022-08-21T19:49:52.066Z,3.28
2022-08-21T19:56:55.376Z,2.78
2022-08-21T20:03:57.978Z,2.85
2022-08-21T20:11:04.124Z,3.40
2022-08-21T20:18:06.968Z,2.92
2022-08-21T20:25:11.356Z,2.88
2022-08-21T20:32:16.784Z,2.97
2022-08-21T20:39:19.160Z,2.63
2022-08-21T20:46:26.997Z,3.13
2022-08-21T20:53:48.806Z,3.05
2022-08-21T21:00:51.966Z,2.40
2022-08-21T21:08:09.497Z,2.90
2022-08-21T21:15:23.455Z,3.10
2022-08-21T21:22:36.937Z,3.10
2022-08-21T21:29:44.632Z,3.13
2022-08-21T21:36:56.769Z,3.20
2022-08-21T21:44:01.813Z,2.67
2022-08-21T21:51:40.325Z,2.95
2022-08-21T22:06:45.088Z,3.05
2022-08-21T22:14:06.265Z,3.47
2022-08-21T22:21:12.809Z,3.05
2022-08-21T22:28:25.435Z,3.17
2022-08-21T22:35:31.641Z,3.55
2022-08-21T22:42:34.026Z,3.40
2022-08-21T22:49:44.105Z,3.47
2022-08-21T22:56:46.441Z,2.95
2022-08-21T23:03:57.386Z,3.17
2022-08-21T23:11:02.855Z,3.20
2022-08-21T23:18:32.871Z,3.05
2022-08-21T23:25:41.361Z,3.60
2022-08-21T23:33:07.314Z,3.20
2022-08-21T23:40:27.917Z,3.03
2022-08-21T23:47:51.245Z,3.22
2022-08-21T23:54:56.363Z,3.30
